Aviation Digital Data Service (ADDS)

Output produced by METARs form (0225 UTC 21 November 2017)
found at http://www.aviationweather.gov/adds/metars/
 
GUCY 210000Z 00000KT 9999 SCT015 SCT110 26/25 Q1012 NOSIG
TAF GUCY 202300Z 2100/2206 36006KT 9999 FEW016 SCT116 
     BECMG 2102/2106 04004KT 3000 BR SCT013 BKN110 
     TEMPO 2123/2204 VRB02KT